Flight Track Log - Related Links

Times and Time Zones

All times are in EST time to prevent confusion due to time zone crossing. See the UPS1111 flight status page for this flight to view local times or setup timezone preferences in your user account.

Time Position Orientation Groundspeed Altitude Reporting Facility
EST Latitude Longitude Course Direction KTS MPH feet Rate Location/Type
Mon 11:13:24 PM 40.6333 -73.8167 252° West 159 183 1,900  Level New York TRACON
Mon 11:14:24 PM 40.6167 -73.8833 252° West 215 247 4,500 2,095 Climbing New York TRACON
Mon 11:15:30 PM 40.5500 -73.9333 210° Southwest 252 290 6,300 2,762 Climbing New York TRACON
Mon 11:16:30 PM 40.5000 -73.9833 217° Southwest 229 264 10,300 3,050 Climbing New York TRACON
Mon 11:17:30 PM 40.4500 -74.0333 217° Southwest 263 303 12,400 2,571 Climbing New York TRACON
Mon 11:18:43 PM 40.3747 -74.1164 220° Southwest 313 360 16,000 2,977 Climbing New York Center
Mon 11:19:43 PM 40.3322 -74.2097 239° Southwest 313 360 19,000 3,000 Climbing New York Center
Mon 11:20:43 PM 40.3103 -74.3231 256° West 313 360 22,000 2,800 Climbing New York Center
Mon 11:21:43 PM 40.2961 -74.4419 261° West 326 375 24,600 2,600 Climbing New York Center
Mon 11:22:43 PM 40.2817 -74.5692 262° West 342 394 27,200 2,450 Climbing New York Center
Mon 11:23:43 PM 40.2650 -74.6933 260° West 347 399 29,500 2,700 Climbing New York Center
Mon 11:24:43 PM 40.2528 -74.8122 262° West 352 405 32,600 2,550 Climbing New York Center
Mon 11:25:43 PM 40.2383 -74.9283 261° West 342 394 34,600 1,650 Climbing New York Center
Mon 11:26:43 PM 40.2239 -75.0417 261° West 331 381 35,900 700 Climbing New York Center
Mon 11:27:43 PM 40.2069 -75.1603 259° West 331 381 36,000 50 Climbing New York Center
Mon 11:28:43 PM 40.1942 -75.2761 262° West 331 381 36,000  Level New York Center
Mon 11:29:43 PM 40.1669 -75.3858 252° West 331 381 36,000  Level New York Center
Mon 11:31:53 PM 40.1072 -75.6267 252° West 335 386 36,000  Level Washington Center
Mon 11:32:52 PM 40.0803 -75.7433 253° West 335 386 36,000  Level Washington Center
Mon 11:33:51 PM 40.0508 -75.8569 251° West 335 386 36,000  Level Washington Center
Mon 11:34:52 PM 40.0256 -75.9708 254° West 335 386 36,000  Level Washington Center
Mon 11:35:52 PM 39.9981 -76.0817 252° West 330 380 36,000  Level Washington Center
Mon 11:36:51 PM 39.9683 -76.1950 251° West 330 380 36,000  Level Washington Center
Mon 11:37:51 PM 39.9406 -76.3086 252° West 325 374 36,000  Level Washington Center
Mon 11:38:51 PM 39.9128 -76.4192 252° West 325 374 36,000  Level Washington Center
Mon 11:39:53 PM 39.8808 -76.5378 251° West 325 374 36,000  Level Washington Center
Mon 11:40:52 PM 39.8506 -76.6508 251° West 331 381 36,000  Level Washington Center
Mon 11:41:53 PM 39.8206 -76.7639 251° West 331 381 36,000  Level Washington Center
Mon 11:42:51 PM 39.7922 -76.8769 252° West 336 387 36,000  Level Washington Center
Mon 11:43:51 PM 39.7639 -76.9925 252° West 336 387 36,000  Level Washington Center
Mon 11:44:52 PM 39.7333 -77.1078 251° West 341 392 36,000  Level Washington Center
Mon 11:45:51 PM 39.7069 -77.2233 254° West 341 392 36,000  Level Washington Center
Mon 11:46:52 PM 39.6761 -77.3386 251° West 341 392 36,000  Level Washington Center
Mon 11:47:53 PM 39.6472 -77.4536 252° West 341 392 36,000  Level Washington Center
Mon 11:48:51 PM 39.6161 -77.5689 251° West 341 392 36,000  Level Washington Center
Mon 11:49:52 PM 39.5850 -77.6864 251° West 341 392 36,000  Level Washington Center
Mon 11:50:52 PM 39.5558 -77.8039 252° West 341 392 36,000  Level Washington Center
Mon 11:51:53 PM 39.5244 -77.9214 251° West 341 392 36,000  Level Washington Center
Mon 11:52:50 PM 39.4931 -78.0386 251° West 341 392 36,000  Level Washington Center
Mon 11:53:51 PM 39.4633 -78.1561 252° West 341 392 36,000  Level Washington Center
Mon 11:54:51 PM 39.4317 -78.2731 251° West 341 392 36,000  Level Washington Center
Mon 11:55:53 PM 39.3997 -78.3928 251° West 347 399 36,000  Level Washington Center
Mon 11:56:50 PM 39.3678 -78.5125 251° West 352 405 36,000  Level Washington Center
Mon 11:57:50 PM 39.3358 -78.6264 250° West 347 399 36,000  Level Washington Center
Mon 11:58:53 PM 39.3036 -78.7431 250° West 347 399 36,000  Level Washington Center
Mon 11:59:51 PM 39.2736 -78.8572 251° West 342 394 36,000  Level Washington Center
Tue 12:00:52 AM 39.2433 -78.9711 251° West 342 394 36,000  Level Washington Center
Tue 12:01:51 AM 39.2108 -79.0875 250° West 342 394 36,000  Level Washington Center
Tue 12:02:53 AM 39.1781 -79.2036 250° West 342 394 36,000  Level Washington Center
Tue 12:03:51 AM 39.1494 -79.3228 253° West 342 394 36,000  Level Washington Center
Tue 12:04:51 AM 39.1167 -79.4389 250° West 342 394 36,000  Level Washington Center
Tue 12:05:52 AM 39.0836 -79.5547 250° West 342 394 36,000  Level Washington Center
Tue 12:06:51 AM 39.0506 -79.6706 250° West 342 394 36,000  Level Washington Center
Tue 12:07:51 AM 39.0172 -79.7942 251° West 348 400 36,000  Level Washington Center
Tue 12:08:49 AM 38.9819 -79.9022 247° West 343 395 36,000  Level Indianapolis Center
Tue 12:09:49 AM 38.9494 -80.0131 249° West 341 392 36,000  Level Indianapolis Center
Tue 12:10:50 AM 38.9175 -80.1256 250° West 340 391 36,000  Level Indianapolis Center
Tue 12:11:51 AM 38.8844 -80.2397 250° West 341 392 36,000  Level Indianapolis Center
Tue 12:12:52 AM 38.8508 -80.3550 250° West 344 396 36,000  Level Indianapolis Center
Tue 12:13:52 AM 38.8186 -80.4683 250° West 340 391 36,000  Level Indianapolis Center
Tue 12:14:53 AM 38.7847 -80.5822 249° West 340 391 36,000  Level Indianapolis Center
Tue 12:15:54 AM 38.7519 -80.6956 250° West 340 391 36,000  Level Indianapolis Center
Tue 12:16:54 AM 38.7186 -80.8092 249° West 340 391 36,000  Level Indianapolis Center
Tue 12:17:55 AM 38.6858 -80.9233 250° West 342 394 36,000  Level Indianapolis Center
Tue 12:18:56 AM 38.6511 -81.0364 249° West 341 392 36,000  Level Indianapolis Center
Tue 12:19:57 AM 38.6103 -81.1744 249° West 344 396 36,000  Level Indianapolis Center
Tue 12:20:57 AM 38.5764 -81.2900 249° West 344 396 36,000  Level Indianapolis Center
Tue 12:21:58 AM 38.5483 -81.3817 249° West 342 394 36,000  Level Indianapolis Center
Tue 12:22:59 AM 38.5136 -81.4975 249° West 343 395 36,000  Level Indianapolis Center
Tue 12:23:59 AM 38.4792 -81.6128 249° West 343 395 36,000  Level Indianapolis Center
Tue 12:25:00 AM 38.4447 -81.7264 249° West 341 392 36,000  Level Indianapolis Center
Tue 12:26:01 AM 38.4092 -81.8411 248° West 341 392 36,000  Level Indianapolis Center
Tue 12:27:01 AM 38.3750 -81.9511 248° West 339 390 36,000  Level Indianapolis Center
Tue 12:28:02 AM 38.3406 -82.0628 249° West 338 389 36,000  Level Indianapolis Center
Tue 12:29:03 AM 38.2989 -82.1967 248° West 338 389 36,000 -298 Level Indianapolis Center
Tue 12:30:03 AM 38.2650 -82.3078 249° West 336 387 35,400 -843 Descending Indianapolis Center
Tue 12:31:04 AM 38.2306 -82.4183 248° West 337 388 34,300 -1,180 Descending Indianapolis Center
Tue 12:32:05 AM 38.1964 -82.5242 248° West 334 384 33,000 -1,140 Descending Indianapolis Center
Tue 12:33:05 AM 38.1606 -82.6400 249° West 348 400 32,000 -496 Descending Indianapolis Center
Tue 12:34:06 AM 38.1250 -82.7533 248° West 346 398 32,000  Level Indianapolis Center
Tue 12:35:07 AM 38.0886 -82.8672 248° West 347 399 32,000  Level Indianapolis Center
Tue 12:36:07 AM 38.0531 -82.9783 248° West 342 394 32,000  Level Indianapolis Center
Tue 12:37:08 AM 38.0172 -83.0889 248° West 340 391 32,000  Level Indianapolis Center
Tue 12:38:08 AM 37.9825 -83.1992 248° West 339 390 32,000  Level Indianapolis Center
Tue 12:39:09 AM 37.9475 -83.3078 248° West 334 384 32,000  Level Indianapolis Center
Tue 12:40:10 AM 37.9125 -83.4164 248° West 333 383 32,000  Level Indianapolis Center
Tue 12:41:10 AM 37.8769 -83.5250 248° West 334 384 32,000  Level Indianapolis Center
Tue 12:42:11 AM 37.8417 -83.6311 247° West 330 380 32,000  Level Indianapolis Center
Tue 12:43:12 AM 37.8069 -83.7389 248° West 330 380 32,000 -198 Level Indianapolis Center
Tue 12:44:12 AM 37.7736 -83.8683 252° West 331 381 31,600 -1,140 Descending Indianapolis Center
Tue 12:45:13 AM 37.7600 -83.9828 261° West 331 381 29,700 -2,678 Descending Indianapolis Center
Tue 12:46:13 AM 37.7467 -84.1044 262° West 345 397 26,200 -2,826 Descending Indianapolis Center
Tue 12:47:14 AM 37.7333 -84.2300 262° West 357 411 24,000 -2,262 Descending Indianapolis Center
Tue 12:48:15 AM 37.7208 -84.3489 262° West 346 398 21,600 -2,579 Descending Indianapolis Center
Tue 12:49:15 AM 37.7081 -84.4647 262° West 335 386 18,800 -2,331 Descending Indianapolis Center
Tue 12:50:16 AM 37.6967 -84.5783 263° West 330 380 16,900 -2,331 Descending Indianapolis Center
Tue 12:51:16 AM 37.6833 -84.6917 262° West 327 376 14,100 -2,479 Descending Indianapolis Center
Tue 12:52:17 AM 37.6708 -84.8042 262° West 324 373 11,900 -1,475 Descending Indianapolis Center
Tue 12:53:18 AM 37.6592 -84.9003 261° West 279 321 11,100 -1,091 Descending Indianapolis Center
Tue 12:54:18 AM 37.6714 -84.9731 282° West 239 275 9,700 -1,339 Descending Indianapolis Center
Tue 12:55:19 AM 37.7139 -85.0375 310° West 242 278 8,400 -843 Descending Indianapolis Center
Tue 12:56:19 AM 37.7606 -85.1006 313° West 244 281 8,000 -694 Descending Indianapolis Center
Tue 12:57:20 AM 37.7981 -85.1708 304° West 241 277 7,000 -1,289 Descending Indianapolis Center
Tue 12:58:20 AM 37.8253 -85.2489 294° West 241 277 5,400 -1,041 Descending Indianapolis Center
Tue 12:59:21 AM 37.8581 -85.3339 296° West 242 278 4,900 -780 Descending Indianapolis Center
Tue 01:02:03 AM 37.9333 -85.5333 296° West 202 232 2,500 -462 Descending Louisville TRACON
Tue 01:04:33 AM 38.0167 -85.6500 312° West 167 192 2,500 -147 Level Louisville TRACON
Tue 01:06:48 AM 38.1000 -85.7000 345° North 139 160 1,800 -311 Descending Louisville TRACON
Tue 01:08:00 AM 38.1741 -85.7365 345° North  Level Estimated
Tue 01:15:00 AM 38.1741 -85.7365 208° Southwest  Level Estimated
Tue 01:16:00 AM 38.1741 -85.7365 208° Southwest  Level Estimated

Login

Don't have an account? Register now (free) for customized features, flight alerts, and more!